sensor_id;sensor_type;location;lat;lon;timestamp;P1;durP1;ratioP1;P2;durP2;ratioP2
22973;SDS011;11653;50.848;4.584;2023-03-11T00:00:31;9.97;;;3.87;;
22973;SDS011;11653;50.848;4.584;2023-03-11T00:02:58;14.53;;;4.63;;
22973;SDS011;11653;50.848;4.584;2023-03-11T00:05:26;11.63;;;3.73;;
22973;SDS011;11653;50.848;4.584;2023-03-11T00:07:53;7.50;;;3.40;;
22973;SDS011;11653;50.848;4.584;2023-03-11T00:10:39;9.00;;;3.70;;
22973;SDS011;11653;50.848;4.584;2023-03-11T00:13:07;20.50;;;6.87;;
22973;SDS011;11653;50.848;4.584;2023-03-11T00:15:34;5.90;;;3.90;;
22973;SDS011;11653;50.848;4.584;2023-03-11T00:18:01;13.30;;;3.90;;
22973;SDS011;11653;50.848;4.584;2023-03-11T00:20:28;7.90;;;3.87;;
22973;SDS011;11653;50.848;4.584;2023-03-11T00:22:55;9.53;;;3.60;;
22973;SDS011;11653;50.848;4.584;2023-03-11T00:25:22;10.87;;;4.37;;
22973;SDS011;11653;50.848;4.584;2023-03-11T00:27:50;15.63;;;4.53;;
22973;SDS011;11653;50.848;4.584;2023-03-11T00:30:16;13.43;;;3.80;;
22973;SDS011;11653;50.848;4.584;2023-03-11T00:32:42;9.33;;;3.57;;
22973;SDS011;11653;50.848;4.584;2023-03-11T00:35:12;11.10;;;3.63;;
22973;SDS011;11653;50.848;4.584;2023-03-11T00:37:40;10.37;;;4.77;;
22973;SDS011;11653;50.848;4.584;2023-03-11T00:40:06;7.77;;;4.00;;
22973;SDS011;11653;50.848;4.584;2023-03-11T00:42:35;10.00;;;4.23;;
22973;SDS011;11653;50.848;4.584;2023-03-11T00:45:01;7.60;;;3.50;;
22973;SDS011;11653;50.848;4.584;2023-03-11T00:47:27;15.37;;;3.90;;
22973;SDS011;11653;50.848;4.584;2023-03-11T00:49:52;11.73;;;4.33;;
22973;SDS011;11653;50.848;4.584;2023-03-11T00:52:18;9.73;;;4.10;;
22973;SDS011;11653;50.848;4.584;2023-03-11T00:54:44;9.47;;;4.40;;
22973;SDS011;11653;50.848;4.584;2023-03-11T00:57:10;12.90;;;4.17;;
22973;SDS011;11653;50.848;4.584;2023-03-11T00:59:35;11.10;;;3.70;;
22973;SDS011;11653;50.848;4.584;2023-03-11T01:02:01;7.77;;;3.30;;
22973;SDS011;11653;50.848;4.584;2023-03-11T01:04:27;11.30;;;3.93;;
22973;SDS011;11653;50.848;4.584;2023-03-11T01:06:52;9.40;;;3.63;;
22973;SDS011;11653;50.848;4.584;2023-03-11T01:09:18;8.17;;;3.00;;
22973;SDS011;11653;50.848;4.584;2023-03-11T01:11:43;9.43;;;3.53;;
22973;SDS011;11653;50.848;4.584;2023-03-11T01:14:09;5.00;;;3.03;;
22973;SDS011;11653;50.848;4.584;2023-03-11T01:16:35;9.97;;;3.60;;
22973;SDS011;11653;50.848;4.584;2023-03-11T01:19:01;7.93;;;3.03;;
22973;SDS011;11653;50.848;4.584;2023-03-11T01:21:26;17.50;;;3.13;;
22973;SDS011;11653;50.848;4.584;2023-03-11T01:23:52;10.80;;;3.27;;
22973;SDS011;11653;50.848;4.584;2023-03-11T01:26:17;8.23;;;3.30;;
22973;SDS011;11653;50.848;4.584;2023-03-11T01:28:43;7.53;;;3.43;;
22973;SDS011;11653;50.848;4.584;2023-03-11T01:31:09;10.63;;;3.83;;
22973;SDS011;11653;50.848;4.584;2023-03-11T01:33:35;9.93;;;3.43;;
22973;SDS011;11653;50.848;4.584;2023-03-11T01:36:01;9.37;;;3.30;;
22973;SDS011;11653;50.848;4.584;2023-03-11T01:38:26;9.83;;;3.40;;
22973;SDS011;11653;50.848;4.584;2023-03-11T01:40:52;11.83;;;3.60;;
22973;SDS011;11653;50.848;4.584;2023-03-11T01:46:17;8.97;;;3.60;;
22973;SDS011;11653;50.848;4.584;2023-03-11T01:48:48;11.50;;;4.00;;
22973;SDS011;11653;50.848;4.584;2023-03-11T01:51:26;9.50;;;3.67;;
22973;SDS011;11653;50.848;4.584;2023-03-11T01:53:55;8.53;;;3.80;;
22973;SDS011;11653;50.848;4.584;2023-03-11T01:56:23;11.87;;;4.33;;
22973;SDS011;11653;50.848;4.584;2023-03-11T01:58:50;11.57;;;4.47;;
22973;SDS011;11653;50.848;4.584;2023-03-11T02:01:18;8.03;;;3.93;;
22973;SDS011;11653;50.848;4.584;2023-03-11T02:03:45;9.57;;;4.17;;
22973;SDS011;11653;50.848;4.584;2023-03-11T02:06:13;12.77;;;4.97;;
22973;SDS011;11653;50.848;4.584;2023-03-11T02:08:42;14.33;;;4.87;;
22973;SDS011;11653;50.848;4.584;2023-03-11T02:11:10;10.90;;;4.57;;
22973;SDS011;11653;50.848;4.584;2023-03-11T02:13:40;13.77;;;4.73;;
22973;SDS011;11653;50.848;4.584;2023-03-11T02:16:08;24.90;;;4.90;;
22973;SDS011;11653;50.848;4.584;2023-03-11T02:18:34;11.40;;;5.10;;
22973;SDS011;11653;50.848;4.584;2023-03-11T02:23:34;8.63;;;4.63;;
22973;SDS011;11653;50.848;4.584;2023-03-11T02:26:23;14.83;;;4.43;;
22973;SDS011;11653;50.848;4.584;2023-03-11T02:29:04;13.63;;;4.60;;
22973;SDS011;11653;50.848;4.584;2023-03-11T02:31:31;14.10;;;5.43;;
22973;SDS011;11653;50.848;4.584;2023-03-11T02:33:58;11.57;;;4.33;;
22973;SDS011;11653;50.848;4.584;2023-03-11T02:36:38;10.83;;;5.37;;
22973;SDS011;11653;50.848;4.584;2023-03-11T02:39:06;15.33;;;4.70;;
22973;SDS011;11653;50.848;4.584;2023-03-11T02:41:34;11.60;;;5.47;;
22973;SDS011;11653;50.848;4.584;2023-03-11T02:44:03;14.53;;;5.00;;
22973;SDS011;11653;50.848;4.584;2023-03-11T02:46:33;10.50;;;4.90;;
22973;SDS011;11653;50.848;4.584;2023-03-11T02:49:00;13.67;;;5.47;;
22973;SDS011;11653;50.848;4.584;2023-03-11T02:51:27;11.70;;;4.27;;
22973;SDS011;11653;50.848;4.584;2023-03-11T02:53:54;12.60;;;5.43;;
22973;SDS011;11653;50.848;4.584;2023-03-11T02:56:23;11.80;;;4.73;;
22973;SDS011;11653;50.848;4.584;2023-03-11T02:58:49;14.97;;;4.33;;
22973;SDS011;11653;50.848;4.584;2023-03-11T03:01:14;12.80;;;4.40;;
22973;SDS011;11653;50.848;4.584;2023-03-11T03:03:40;15.30;;;4.70;;
22973;SDS011;11653;50.848;4.584;2023-03-11T03:06:06;7.60;;;4.00;;
22973;SDS011;11653;50.848;4.584;2023-03-11T03:08:31;9.23;;;4.10;;
22973;SDS011;11653;50.848;4.584;2023-03-11T03:10:57;16.27;;;4.70;;
22973;SDS011;11653;50.848;4.584;2023-03-11T03:13:24;9.60;;;4.23;;
22973;SDS011;11653;50.848;4.584;2023-03-11T03:15:50;13.30;;;4.10;;
22973;SDS011;11653;50.848;4.584;2023-03-11T03:18:16;15.93;;;4.67;;
22973;SDS011;11653;50.848;4.584;2023-03-11T03:20:42;10.60;;;4.30;;
22973;SDS011;11653;50.848;4.584;2023-03-11T03:23:08;9.93;;;4.50;;
22973;SDS011;11653;50.848;4.584;2023-03-11T03:25:34;11.67;;;4.50;;
22973;SDS011;11653;50.848;4.584;2023-03-11T03:28:00;14.13;;;4.90;;
22973;SDS011;11653;50.848;4.584;2023-03-11T03:30:25;11.57;;;4.77;;
22973;SDS011;11653;50.848;4.584;2023-03-11T03:32:53;9.10;;;4.43;;
22973;SDS011;11653;50.848;4.584;2023-03-11T03:35:19;14.23;;;4.67;;
22973;SDS011;11653;50.848;4.584;2023-03-11T03:37:45;11.80;;;4.47;;
22973;SDS011;11653;50.848;4.584;2023-03-11T03:40:11;10.80;;;4.70;;
22973;SDS011;11653;50.848;4.584;2023-03-11T03:42:37;9.20;;;4.33;;
22973;SDS011;11653;50.848;4.584;2023-03-11T03:45:04;14.60;;;4.37;;
22973;SDS011;11653;50.848;4.584;2023-03-11T03:47:32;16.27;;;4.70;;
22973;SDS011;11653;50.848;4.584;2023-03-11T03:49:58;10.90;;;4.90;;
22973;SDS011;11653;50.848;4.584;2023-03-11T03:52:24;9.77;;;4.97;;
22973;SDS011;11653;50.848;4.584;2023-03-11T03:54:50;12.43;;;4.50;;
22973;SDS011;11653;50.848;4.584;2023-03-11T03:57:16;10.80;;;4.83;;
22973;SDS011;11653;50.848;4.584;2023-03-11T03:59:41;11.33;;;4.83;;
22973;SDS011;11653;50.848;4.584;2023-03-11T04:02:07;10.63;;;5.00;;
22973;SDS011;11653;50.848;4.584;2023-03-11T04:04:33;12.00;;;4.77;;
22973;SDS011;11653;50.848;4.584;2023-03-11T04:06:58;9.57;;;5.00;;
22973;SDS011;11653;50.848;4.584;2023-03-11T04:09:24;13.00;;;4.83;;
22973;SDS011;11653;50.848;4.584;2023-03-11T04:11:50;18.57;;;5.27;;
22973;SDS011;11653;50.848;4.584;2023-03-11T04:14:15;10.23;;;5.40;;
22973;SDS011;11653;50.848;4.584;2023-03-11T04:16:41;11.20;;;5.07;;
22973;SDS011;11653;50.848;4.584;2023-03-11T04:19:07;13.47;;;5.13;;
22973;SDS011;11653;50.848;4.584;2023-03-11T04:21:33;10.83;;;5.70;;
22973;SDS011;11653;50.848;4.584;2023-03-11T04:23:58;11.53;;;5.20;;
22973;SDS011;11653;50.848;4.584;2023-03-11T04:26:24;12.70;;;4.80;;
22973;SDS011;11653;50.848;4.584;2023-03-11T04:28:50;11.77;;;5.23;;
22973;SDS011;11653;50.848;4.584;2023-03-11T04:31:16;9.60;;;4.70;;
22973;SDS011;11653;50.848;4.584;2023-03-11T04:33:42;13.47;;;4.87;;
22973;SDS011;11653;50.848;4.584;2023-03-11T04:36:08;10.53;;;4.67;;
22973;SDS011;11653;50.848;4.584;2023-03-11T04:38:34;12.13;;;4.87;;
22973;SDS011;11653;50.848;4.584;2023-03-11T04:41:03;10.07;;;4.80;;
22973;SDS011;11653;50.848;4.584;2023-03-11T04:43:30;11.10;;;5.10;;
22973;SDS011;11653;50.848;4.584;2023-03-11T04:45:56;10.60;;;4.80;;
22973;SDS011;11653;50.848;4.584;2023-03-11T04:48:22;11.53;;;4.73;;
22973;SDS011;11653;50.848;4.584;2023-03-11T04:50:49;13.50;;;4.37;;
22973;SDS011;11653;50.848;4.584;2023-03-11T04:53:15;7.50;;;5.30;;
22973;SDS011;11653;50.848;4.584;2023-03-11T04:55:40;9.90;;;4.60;;
22973;SDS011;11653;50.848;4.584;2023-03-11T04:58:06;9.07;;;4.40;;
22973;SDS011;11653;50.848;4.584;2023-03-11T05:00:32;9.93;;;4.20;;
22973;SDS011;11653;50.848;4.584;2023-03-11T05:02:57;10.87;;;4.60;;
22973;SDS011;11653;50.848;4.584;2023-03-11T05:05:23;10.00;;;4.90;;
22973;SDS011;11653;50.848;4.584;2023-03-11T05:07:49;13.07;;;4.83;;
22973;SDS011;11653;50.848;4.584;2023-03-11T05:10:15;10.73;;;5.03;;
22973;SDS011;11653;50.848;4.584;2023-03-11T05:12:46;11.20;;;4.37;;
22973;SDS011;11653;50.848;4.584;2023-03-11T05:15:13;9.50;;;4.47;;
22973;SDS011;11653;50.848;4.584;2023-03-11T05:17:38;12.23;;;5.00;;
22973;SDS011;11653;50.848;4.584;2023-03-11T05:20:04;10.33;;;4.90;;
22973;SDS011;11653;50.848;4.584;2023-03-11T05:22:31;9.20;;;4.23;;
22973;SDS011;11653;50.848;4.584;2023-03-11T05:24:57;9.57;;;4.67;;
22973;SDS011;11653;50.848;4.584;2023-03-11T05:27:23;9.90;;;4.57;;
22973;SDS011;11653;50.848;4.584;2023-03-11T05:29:48;12.90;;;5.77;;
22973;SDS011;11653;50.848;4.584;2023-03-11T05:32:14;7.07;;;4.60;;
22973;SDS011;11653;50.848;4.584;2023-03-11T05:34:40;13.13;;;5.00;;
22973;SDS011;11653;50.848;4.584;2023-03-11T05:37:05;12.83;;;6.03;;
22973;SDS011;11653;50.848;4.584;2023-03-11T05:39:31;11.40;;;5.23;;
22973;SDS011;11653;50.848;4.584;2023-03-11T05:41:58;10.30;;;5.97;;
22973;SDS011;11653;50.848;4.584;2023-03-11T05:44:24;10.20;;;5.87;;
22973;SDS011;11653;50.848;4.584;2023-03-11T05:46:49;10.53;;;5.80;;
22973;SDS011;11653;50.848;4.584;2023-03-11T05:49:15;12.77;;;5.93;;
22973;SDS011;11653;50.848;4.584;2023-03-11T05:51:41;11.50;;;5.87;;
22973;SDS011;11653;50.848;4.584;2023-03-11T05:54:06;13.17;;;5.17;;
22973;SDS011;11653;50.848;4.584;2023-03-11T05:56:39;11.50;;;5.23;;
22973;SDS011;11653;50.848;4.584;2023-03-11T05:59:05;11.77;;;5.87;;
22973;SDS011;11653;50.848;4.584;2023-03-11T06:01:31;11.50;;;5.97;;
22973;SDS011;11653;50.848;4.584;2023-03-11T06:03:56;11.23;;;6.23;;
22973;SDS011;11653;50.848;4.584;2023-03-11T06:06:22;13.90;;;6.63;;
22973;SDS011;11653;50.848;4.584;2023-03-11T06:08:48;19.23;;;6.80;;
22973;SDS011;11653;50.848;4.584;2023-03-11T06:11:14;12.97;;;6.67;;
22973;SDS011;11653;50.848;4.584;2023-03-11T06:13:40;16.47;;;7.70;;
22973;SDS011;11653;50.848;4.584;2023-03-11T06:16:06;13.43;;;6.80;;
22973;SDS011;11653;50.848;4.584;2023-03-11T06:18:32;15.03;;;6.93;;
22973;SDS011;11653;50.848;4.584;2023-03-11T06:20:58;18.77;;;7.97;;
22973;SDS011;11653;50.848;4.584;2023-03-11T06:23:26;19.77;;;7.73;;
22973;SDS011;11653;50.848;4.584;2023-03-11T06:25:56;17.47;;;7.27;;
22973;SDS011;11653;50.848;4.584;2023-03-11T06:28:23;19.43;;;7.37;;
22973;SDS011;11653;50.848;4.584;2023-03-11T06:30:49;19.43;;;8.53;;
22973;SDS011;11653;50.848;4.584;2023-03-11T06:33:14;20.03;;;9.20;;
22973;SDS011;11653;50.848;4.584;2023-03-11T06:35:40;15.23;;;8.77;;
22973;SDS011;11653;50.848;4.584;2023-03-11T06:38:06;14.83;;;8.17;;
22973;SDS011;11653;50.848;4.584;2023-03-11T06:40:31;16.67;;;8.57;;
22973;SDS011;11653;50.848;4.584;2023-03-11T06:42:57;23.77;;;10.07;;
22973;SDS011;11653;50.848;4.584;2023-03-11T06:45:23;18.27;;;9.20;;
22973;SDS011;11653;50.848;4.584;2023-03-11T06:47:49;19.03;;;9.60;;
22973;SDS011;11653;50.848;4.584;2023-03-11T06:50:14;19.93;;;9.57;;
22973;SDS011;11653;50.848;4.584;2023-03-11T06:52:40;14.80;;;8.90;;
22973;SDS011;11653;50.848;4.584;2023-03-11T06:55:06;20.03;;;9.03;;
22973;SDS011;11653;50.848;4.584;2023-03-11T06:57:32;14.93;;;7.43;;
22973;SDS011;11653;50.848;4.584;2023-03-11T06:59:58;18.57;;;7.37;;
22973;SDS011;11653;50.848;4.584;2023-03-11T07:02:24;11.40;;;5.33;;
22973;SDS011;11653;50.848;4.584;2023-03-11T07:04:49;14.33;;;4.90;;
22973;SDS011;11653;50.848;4.584;2023-03-11T07:07:15;11.23;;;4.93;;
22973;SDS011;11653;50.848;4.584;2023-03-11T07:09:41;7.43;;;3.67;;
22973;SDS011;11653;50.848;4.584;2023-03-11T07:12:07;8.30;;;4.07;;
22973;SDS011;11653;50.848;4.584;2023-03-11T07:14:33;6.37;;;3.30;;
22973;SDS011;11653;50.848;4.584;2023-03-11T07:16:59;10.90;;;5.10;;
22973;SDS011;11653;50.848;4.584;2023-03-11T07:19:24;9.80;;;3.47;;
22973;SDS011;11653;50.848;4.584;2023-03-11T07:21:50;6.67;;;3.13;;
22973;SDS011;11653;50.848;4.584;2023-03-11T07:24:16;9.53;;;3.43;;
22973;SDS011;11653;50.848;4.584;2023-03-11T07:26:42;7.93;;;3.43;;
22973;SDS011;11653;50.848;4.584;2023-03-11T07:29:07;10.13;;;3.60;;
22973;SDS011;11653;50.848;4.584;2023-03-11T07:31:34;7.93;;;3.40;;
22973;SDS011;11653;50.848;4.584;2023-03-11T07:34:01;6.57;;;2.87;;
22973;SDS011;11653;50.848;4.584;2023-03-11T07:36:29;8.67;;;3.27;;
22973;SDS011;11653;50.848;4.584;2023-03-11T07:38:55;10.33;;;3.17;;
22973;SDS011;11653;50.848;4.584;2023-03-11T07:41:24;6.73;;;2.80;;
22973;SDS011;11653;50.848;4.584;2023-03-11T07:43:53;8.53;;;3.90;;
22973;SDS011;11653;50.848;4.584;2023-03-11T07:46:20;11.03;;;3.73;;
22973;SDS011;11653;50.848;4.584;2023-03-11T07:48:47;8.80;;;3.70;;
22973;SDS011;11653;50.848;4.584;2023-03-11T07:53:45;13.70;;;6.57;;
22973;SDS011;11653;50.848;4.584;2023-03-11T07:56:11;10.00;;;6.00;;
22973;SDS011;11653;50.848;4.584;2023-03-11T07:58:38;12.47;;;4.30;;
22973;SDS011;11653;50.848;4.584;2023-03-11T08:01:05;10.67;;;5.27;;
22973;SDS011;11653;50.848;4.584;2023-03-11T08:03:42;8.20;;;4.70;;
22973;SDS011;11653;50.848;4.584;2023-03-11T08:06:18;10.37;;;4.10;;
22973;SDS011;11653;50.848;4.584;2023-03-11T08:08:46;10.03;;;4.50;;
22973;SDS011;11653;50.848;4.584;2023-03-11T08:11:13;9.07;;;5.30;;
22973;SDS011;11653;50.848;4.584;2023-03-11T08:13:40;14.70;;;7.30;;
22973;SDS011;11653;50.848;4.584;2023-03-11T08:16:07;22.27;;;11.40;;
22973;SDS011;11653;50.848;4.584;2023-03-11T08:18:34;11.73;;;5.80;;
22973;SDS011;11653;50.848;4.584;2023-03-11T08:21:03;10.60;;;4.80;;
22973;SDS011;11653;50.848;4.584;2023-03-11T08:23:33;14.37;;;4.93;;
22973;SDS011;11653;50.848;4.584;2023-03-11T08:26:01;12.30;;;4.57;;
22973;SDS011;11653;50.848;4.584;2023-03-11T08:28:31;9.70;;;4.50;;
22973;SDS011;11653;50.848;4.584;2023-03-11T08:30:57;8.97;;;4.80;;
22973;SDS011;11653;50.848;4.584;2023-03-11T08:33:23;13.10;;;4.20;;
22973;SDS011;11653;50.848;4.584;2023-03-11T08:35:49;7.97;;;4.47;;
22973;SDS011;11653;50.848;4.584;2023-03-11T08:38:14;11.03;;;4.10;;
22973;SDS011;11653;50.848;4.584;2023-03-11T08:40:40;15.57;;;3.87;;
22973;SDS011;11653;50.848;4.584;2023-03-11T08:43:05;12.40;;;4.10;;
22973;SDS011;11653;50.848;4.584;2023-03-11T08:45:32;8.17;;;4.00;;
22973;SDS011;11653;50.848;4.584;2023-03-11T08:47:58;11.60;;;4.30;;
22973;SDS011;11653;50.848;4.584;2023-03-11T08:50:23;8.97;;;3.63;;
22973;SDS011;11653;50.848;4.584;2023-03-11T08:52:49;9.60;;;4.80;;
22973;SDS011;11653;50.848;4.584;2023-03-11T08:55:15;11.10;;;4.03;;
22973;SDS011;11653;50.848;4.584;2023-03-11T08:57:47;10.37;;;4.17;;
22973;SDS011;11653;50.848;4.584;2023-03-11T09:00:13;9.00;;;4.50;;
22973;SDS011;11653;50.848;4.584;2023-03-11T09:02:39;9.90;;;4.20;;
22973;SDS011;11653;50.848;4.584;2023-03-11T09:05:05;10.57;;;4.33;;
22973;SDS011;11653;50.848;4.584;2023-03-11T09:07:31;10.17;;;3.90;;
22973;SDS011;11653;50.848;4.584;2023-03-11T09:09:57;6.90;;;3.03;;
22973;SDS011;11653;50.848;4.584;2023-03-11T09:12:22;10.47;;;2.57;;
22973;SDS011;11653;50.848;4.584;2023-03-11T09:14:48;11.77;;;3.40;;
22973;SDS011;11653;50.848;4.584;2023-03-11T09:17:14;8.87;;;3.17;;
22973;SDS011;11653;50.848;4.584;2023-03-11T09:19:41;10.13;;;2.50;;
22973;SDS011;11653;50.848;4.584;2023-03-11T09:22:06;6.73;;;2.10;;
22973;SDS011;11653;50.848;4.584;2023-03-11T09:24:33;7.03;;;2.07;;
22973;SDS011;11653;50.848;4.584;2023-03-11T09:26:59;6.00;;;2.20;;
22973;SDS011;11653;50.848;4.584;2023-03-11T09:29:25;4.83;;;1.87;;
22973;SDS011;11653;50.848;4.584;2023-03-11T09:31:51;6.23;;;1.90;;
22973;SDS011;11653;50.848;4.584;2023-03-11T09:34:17;5.40;;;1.37;;
22973;SDS011;11653;50.848;4.584;2023-03-11T09:36:43;5.20;;;1.00;;
22973;SDS011;11653;50.848;4.584;2023-03-11T09:39:09;3.70;;;1.10;;
22973;SDS011;11653;50.848;4.584;2023-03-11T09:41:54;6.70;;;1.03;;
22973;SDS011;11653;50.848;4.584;2023-03-11T09:58:24;5.60;;;1.60;;
22973;SDS011;11653;50.848;4.584;2023-03-11T10:00:59;3.70;;;0.90;;
22973;SDS011;11653;50.848;4.584;2023-03-11T10:03:31;3.33;;;1.10;;
22973;SDS011;11653;50.848;4.584;2023-03-11T10:14:03;5.20;;;1.53;;
22973;SDS011;11653;50.848;4.584;2023-03-11T10:17:02;4.97;;;1.43;;
22973;SDS011;11653;50.848;4.584;2023-03-11T10:20:20;7.00;;;1.33;;
22973;SDS011;11653;50.848;4.584;2023-03-11T10:23:10;5.47;;;1.20;;
22973;SDS011;11653;50.848;4.584;2023-03-11T10:28:31;7.67;;;1.43;;
22973;SDS011;11653;50.848;4.584;2023-03-11T10:36:20;7.67;;;1.50;;
22973;SDS011;11653;50.848;4.584;2023-03-11T10:38:50;4.97;;;0.97;;
22973;SDS011;11653;50.848;4.584;2023-03-11T10:41:23;5.67;;;1.07;;
22973;SDS011;11653;50.848;4.584;2023-03-11T10:47:03;6.03;;;1.50;;
22973;SDS011;11653;50.848;4.584;2023-03-11T10:49:30;3.67;;;1.00;;
22973;SDS011;11653;50.848;4.584;2023-03-11T10:51:56;7.17;;;0.97;;
22973;SDS011;11653;50.848;4.584;2023-03-11T10:54:32;10.43;;;1.80;;
22973;SDS011;11653;50.848;4.584;2023-03-11T10:57:27;8.40;;;1.63;;
22973;SDS011;11653;50.848;4.584;2023-03-11T10:59:57;3.47;;;1.03;;
22973;SDS011;11653;50.848;4.584;2023-03-11T11:07:40;6.67;;;1.53;;
22973;SDS011;11653;50.848;4.584;2023-03-11T11:18:17;5.03;;;1.07;;
22973;SDS011;11653;50.848;4.584;2023-03-11T11:23:47;4.73;;;1.00;;
22973;SDS011;11653;50.848;4.584;2023-03-11T11:26:24;6.50;;;1.27;;
22973;SDS011;11653;50.848;4.584;2023-03-11T11:31:44;7.80;;;1.90;;
22973;SDS011;11653;50.848;4.584;2023-03-11T11:37:00;4.63;;;1.10;;
22973;SDS011;11653;50.848;4.584;2023-03-11T11:39:35;4.33;;;1.23;;
22973;SDS011;11653;50.848;4.584;2023-03-11T11:42:15;4.87;;;1.10;;
22973;SDS011;11653;50.848;4.584;2023-03-11T11:44:42;2.53;;;0.97;;
22973;SDS011;11653;50.848;4.584;2023-03-11T11:47:13;2.97;;;0.93;;
22973;SDS011;11653;50.848;4.584;2023-03-11T11:50:03;3.27;;;1.13;;
22973;SDS011;11653;50.848;4.584;2023-03-11T11:52:46;4.63;;;0.90;;
22973;SDS011;11653;50.848;4.584;2023-03-11T11:55:19;6.13;;;1.13;;
22973;SDS011;11653;50.848;4.584;2023-03-11T11:57:50;6.13;;;1.03;;
22973;SDS011;11653;50.848;4.584;2023-03-11T12:00:17;4.67;;;1.23;;
22973;SDS011;11653;50.848;4.584;2023-03-11T12:05:30;5.50;;;1.20;;
22973;SDS011;11653;50.848;4.584;2023-03-11T12:08:13;3.90;;;1.20;;
22973;SDS011;11653;50.848;4.584;2023-03-11T12:13:49;4.83;;;1.30;;
22973;SDS011;11653;50.848;4.584;2023-03-11T12:19:31;3.83;;;1.33;;
22973;SDS011;11653;50.848;4.584;2023-03-11T12:27:33;3.00;;;1.30;;
22973;SDS011;11653;50.848;4.584;2023-03-11T12:32:44;5.00;;;0.90;;
22973;SDS011;11653;50.848;4.584;2023-03-11T12:35:22;6.23;;;0.90;;
22973;SDS011;11653;50.848;4.584;2023-03-11T12:40:48;4.90;;;1.63;;
22973;SDS011;11653;50.848;4.584;2023-03-11T12:43:23;6.77;;;1.20;;
22973;SDS011;11653;50.848;4.584;2023-03-11T12:45:50;2.73;;;1.00;;
22973;SDS011;11653;50.848;4.584;2023-03-11T12:48:24;4.73;;;1.20;;
22973;SDS011;11653;50.848;4.584;2023-03-11T12:56:56;4.10;;;1.27;;
22973;SDS011;11653;50.848;4.584;2023-03-11T13:02:37;6.03;;;1.33;;
22973;SDS011;11653;50.848;4.584;2023-03-11T13:05:20;5.50;;;1.80;;
22973;SDS011;11653;50.848;4.584;2023-03-11T13:10:40;7.57;;;1.40;;
22973;SDS011;11653;50.848;4.584;2023-03-11T13:18:37;7.03;;;1.27;;
22973;SDS011;11653;50.848;4.584;2023-03-11T13:21:52;5.70;;;1.30;;
22973;SDS011;11653;50.848;4.584;2023-03-11T13:41:18;8.43;;;1.43;;
22973;SDS011;11653;50.848;4.584;2023-03-11T13:43:51;4.17;;;1.60;;
22973;SDS011;11653;50.848;4.584;2023-03-11T13:46:26;8.53;;;1.93;;
22973;SDS011;11653;50.848;4.584;2023-03-11T13:49:03;6.87;;;1.60;;
22973;SDS011;11653;50.848;4.584;2023-03-11T13:51:43;6.20;;;1.50;;
22973;SDS011;11653;50.848;4.584;2023-03-11T13:56:51;6.13;;;1.50;;
22973;SDS011;11653;50.848;4.584;2023-03-11T13:59:23;12.00;;;2.07;;
22973;SDS011;11653;50.848;4.584;2023-03-11T14:04:29;16.97;;;2.67;;
22973;SDS011;11653;50.848;4.584;2023-03-11T14:06:56;6.57;;;1.40;;
22973;SDS011;11653;50.848;4.584;2023-03-11T14:09:23;7.33;;;1.20;;
22973;SDS011;11653;50.848;4.584;2023-03-11T14:11:54;5.30;;;1.50;;
22973;SDS011;11653;50.848;4.584;2023-03-11T14:17:14;8.57;;;1.70;;
22973;SDS011;11653;50.848;4.584;2023-03-11T14:19:42;4.50;;;1.50;;
22973;SDS011;11653;50.848;4.584;2023-03-11T14:22:25;9.37;;;2.17;;
22973;SDS011;11653;50.848;4.584;2023-03-11T14:24:51;8.27;;;1.90;;
22973;SDS011;11653;50.848;4.584;2023-03-11T14:27:17;6.70;;;1.70;;
22973;SDS011;11653;50.848;4.584;2023-03-11T14:29:43;17.90;;;3.70;;
22973;SDS011;11653;50.848;4.584;2023-03-11T14:32:43;3.73;;;1.73;;
22973;SDS011;11653;50.848;4.584;2023-03-11T14:35:15;4.43;;;1.60;;
22973;SDS011;11653;50.848;4.584;2023-03-11T14:37:43;4.50;;;1.40;;
22973;SDS011;11653;50.848;4.584;2023-03-11T14:43:02;5.83;;;1.63;;
22973;SDS011;11653;50.848;4.584;2023-03-11T14:45:33;4.50;;;1.63;;
22973;SDS011;11653;50.848;4.584;2023-03-11T14:50:45;8.77;;;3.77;;
22973;SDS011;11653;50.848;4.584;2023-03-11T15:03:44;10.27;;;1.93;;
22973;SDS011;11653;50.848;4.584;2023-03-11T15:06:24;9.40;;;1.87;;
22973;SDS011;11653;50.848;4.584;2023-03-11T15:09:02;6.77;;;1.77;;
22973;SDS011;11653;50.848;4.584;2023-03-11T15:11:29;4.60;;;1.67;;
22973;SDS011;11653;50.848;4.584;2023-03-11T15:14:19;5.00;;;1.77;;
22973;SDS011;11653;50.848;4.584;2023-03-11T15:16:48;6.37;;;3.10;;
22973;SDS011;11653;50.848;4.584;2023-03-11T15:21:48;8.23;;;1.47;;
22973;SDS011;11653;50.848;4.584;2023-03-11T15:24:19;6.17;;;1.60;;
22973;SDS011;11653;50.848;4.584;2023-03-11T15:26:52;7.10;;;1.73;;
22973;SDS011;11653;50.848;4.584;2023-03-11T15:29:29;7.87;;;1.90;;
22973;SDS011;11653;50.848;4.584;2023-03-11T15:31:56;6.50;;;1.70;;
22973;SDS011;11653;50.848;4.584;2023-03-11T15:34:24;4.17;;;1.93;;
22973;SDS011;11653;50.848;4.584;2023-03-11T15:39:20;8.80;;;2.23;;
22973;SDS011;11653;50.848;4.584;2023-03-11T15:47:15;3.37;;;1.70;;
22973;SDS011;11653;50.848;4.584;2023-03-11T15:49:46;6.00;;;2.23;;
22973;SDS011;11653;50.848;4.584;2023-03-11T15:52:12;7.30;;;2.87;;
22973;SDS011;11653;50.848;4.584;2023-03-11T15:54:38;8.97;;;2.10;;
22973;SDS011;11653;50.848;4.584;2023-03-11T15:57:05;7.13;;;2.13;;
22973;SDS011;11653;50.848;4.584;2023-03-11T15:59:41;9.97;;;3.20;;
22973;SDS011;11653;50.848;4.584;2023-03-11T16:02:14;5.97;;;2.20;;
22973;SDS011;11653;50.848;4.584;2023-03-11T16:04:48;8.50;;;1.83;;
22973;SDS011;11653;50.848;4.584;2023-03-11T16:07:14;5.57;;;2.27;;
22973;SDS011;11653;50.848;4.584;2023-03-11T16:09:40;9.37;;;2.47;;
22973;SDS011;11653;50.848;4.584;2023-03-11T16:12:12;10.93;;;1.93;;
22973;SDS011;11653;50.848;4.584;2023-03-11T16:14:38;7.07;;;2.10;;
22973;SDS011;11653;50.848;4.584;2023-03-11T16:17:04;6.43;;;2.87;;
22973;SDS011;11653;50.848;4.584;2023-03-11T16:19:29;10.20;;;1.83;;
22973;SDS011;11653;50.848;4.584;2023-03-11T16:21:55;5.47;;;2.27;;
22973;SDS011;11653;50.848;4.584;2023-03-11T16:24:21;8.50;;;2.70;;
22973;SDS011;11653;50.848;4.584;2023-03-11T16:26:48;8.93;;;2.33;;
22973;SDS011;11653;50.848;4.584;2023-03-11T16:29:16;11.40;;;2.47;;
22973;SDS011;11653;50.848;4.584;2023-03-11T16:31:41;6.37;;;2.90;;
22973;SDS011;11653;50.848;4.584;2023-03-11T16:34:07;7.20;;;3.57;;
22973;SDS011;11653;50.848;4.584;2023-03-11T16:36:33;6.97;;;2.57;;
22973;SDS011;11653;50.848;4.584;2023-03-11T16:38:59;9.60;;;2.93;;
22973;SDS011;11653;50.848;4.584;2023-03-11T16:41:24;11.73;;;2.90;;
22973;SDS011;11653;50.848;4.584;2023-03-11T16:43:50;8.77;;;2.20;;
22973;SDS011;11653;50.848;4.584;2023-03-11T16:46:17;5.30;;;1.60;;
22973;SDS011;11653;50.848;4.584;2023-03-11T16:48:42;5.43;;;2.23;;
22973;SDS011;11653;50.848;4.584;2023-03-11T16:51:08;5.67;;;2.00;;
22973;SDS011;11653;50.848;4.584;2023-03-11T16:53:34;5.67;;;2.37;;
22973;SDS011;11653;50.848;4.584;2023-03-11T16:55:59;7.27;;;2.43;;
22973;SDS011;11653;50.848;4.584;2023-03-11T16:58:25;5.80;;;2.10;;
22973;SDS011;11653;50.848;4.584;2023-03-11T17:00:51;4.80;;;1.70;;
22973;SDS011;11653;50.848;4.584;2023-03-11T17:03:18;7.93;;;2.20;;
22973;SDS011;11653;50.848;4.584;2023-03-11T17:05:44;9.27;;;4.30;;
22973;SDS011;11653;50.848;4.584;2023-03-11T17:08:10;10.70;;;4.23;;
22973;SDS011;11653;50.848;4.584;2023-03-11T17:10:38;11.40;;;4.00;;
22973;SDS011;11653;50.848;4.584;2023-03-11T17:13:07;10.20;;;3.70;;
22973;SDS011;11653;50.848;4.584;2023-03-11T17:15:34;10.20;;;3.70;;
22973;SDS011;11653;50.848;4.584;2023-03-11T17:18:02;10.43;;;2.77;;
22973;SDS011;11653;50.848;4.584;2023-03-11T17:20:31;8.17;;;3.43;;